San Francisco, California
Traffic Map
Current Weather Conditions
San Francisco, California
Few Clouds
Few Clouds
71°
Feels Like: 71°
Wind Chill: 71° Ceiling: Unl
Heat Index: 71° Visibility: 10mi
Dew Point: 59° Wind: 22mph
Humidity: 66% Direction: 260° (W)
Pressure: 30.09in Gusts: 0mph
Raw Report DataKSFO 232356Z 26019KT 10SM FEW009 22/15 A3009 RMK AO2 SLP190 T02170150 10244 20211 58014 $
Traffic Incident Summary
Active as of:
Severity:
Category:
InformationThere was an issue retrieving the traffic information for this location. Please try a different location or try again shortly.
Advertisements
Track Severe Weather on mobile